sensor_id;sensor_type;location;lat;lon;timestamp;P1;durP1;ratioP1;P2;durP2;ratioP2
6547;SDS011;3307;52.416;16.862;2023-02-25T00:01:08;13.32;;;11.82;;
6547;SDS011;3307;52.416;16.862;2023-02-25T00:03:36;15.57;;;12.55;;
6547;SDS011;3307;52.416;16.862;2023-02-25T00:06:02;13.88;;;12.15;;
6547;SDS011;3307;52.416;16.862;2023-02-25T00:08:29;18.25;;;13.05;;
6547;SDS011;3307;52.416;16.862;2023-02-25T00:10:58;16.40;;;13.20;;
6547;SDS011;3307;52.416;16.862;2023-02-25T00:13:24;16.85;;;12.90;;
6547;SDS011;3307;52.416;16.862;2023-02-25T00:15:50;16.80;;;12.35;;
6547;SDS011;3307;52.416;16.862;2023-02-25T00:18:15;18.50;;;12.23;;
6547;SDS011;3307;52.416;16.862;2023-02-25T00:20:41;16.30;;;13.87;;
6547;SDS011;3307;52.416;16.862;2023-02-25T00:23:06;14.77;;;12.70;;
6547;SDS011;3307;52.416;16.862;2023-02-25T00:25:32;16.47;;;13.33;;
6547;SDS011;3307;52.416;16.862;2023-02-25T00:27:58;19.40;;;13.53;;
6547;SDS011;3307;52.416;16.862;2023-02-25T00:30:23;20.50;;;15.40;;
6547;SDS011;3307;52.416;16.862;2023-02-25T00:32:49;16.13;;;14.43;;
6547;SDS011;3307;52.416;16.862;2023-02-25T00:35:14;17.07;;;13.93;;
6547;SDS011;3307;52.416;16.862;2023-02-25T00:37:40;16.60;;;13.00;;
6547;SDS011;3307;52.416;16.862;2023-02-25T00:40:06;19.80;;;14.80;;
6547;SDS011;3307;52.416;16.862;2023-02-25T00:42:40;17.10;;;13.85;;
6547;SDS011;3307;52.416;16.862;2023-02-25T00:45:06;20.65;;;14.00;;
6547;SDS011;3307;52.416;16.862;2023-02-25T00:47:32;19.65;;;14.55;;
6547;SDS011;3307;52.416;16.862;2023-02-25T00:49:57;20.23;;;14.90;;
6547;SDS011;3307;52.416;16.862;2023-02-25T00:52:23;21.30;;;15.00;;
6547;SDS011;3307;52.416;16.862;2023-02-25T00:54:48;18.00;;;13.93;;
6547;SDS011;3307;52.416;16.862;2023-02-25T00:57:14;17.20;;;13.97;;
6547;SDS011;3307;52.416;16.862;2023-02-25T00:59:39;17.70;;;14.57;;
6547;SDS011;3307;52.416;16.862;2023-02-25T01:02:05;19.10;;;13.77;;
6547;SDS011;3307;52.416;16.862;2023-02-25T01:04:30;14.97;;;12.00;;
6547;SDS011;3307;52.416;16.862;2023-02-25T01:06:56;19.13;;;14.77;;
6547;SDS011;3307;52.416;16.862;2023-02-25T01:09:21;18.20;;;13.87;;
6547;SDS011;3307;52.416;16.862;2023-02-25T01:11:47;16.93;;;13.50;;
6547;SDS011;3307;52.416;16.862;2023-02-25T01:14:14;14.68;;;12.15;;
6547;SDS011;3307;52.416;16.862;2023-02-25T01:16:44;16.92;;;13.55;;
6547;SDS011;3307;52.416;16.862;2023-02-25T01:19:11;16.73;;;13.00;;
6547;SDS011;3307;52.416;16.862;2023-02-25T01:21:39;15.52;;;12.85;;
6547;SDS011;3307;52.416;16.862;2023-02-25T01:24:13;16.70;;;12.98;;
6547;SDS011;3307;52.416;16.862;2023-02-25T01:26:41;18.85;;;13.05;;
6547;SDS011;3307;52.416;16.862;2023-02-25T01:29:09;16.65;;;12.45;;
6547;SDS011;3307;52.416;16.862;2023-02-25T01:31:36;16.67;;;12.32;;
6547;SDS011;3307;52.416;16.862;2023-02-25T01:34:02;18.67;;;12.57;;
6547;SDS011;3307;52.416;16.862;2023-02-25T01:36:29;15.85;;;11.80;;
6547;SDS011;3307;52.416;16.862;2023-02-25T01:38:55;17.10;;;12.95;;
6547;SDS011;3307;52.416;16.862;2023-02-25T01:41:21;15.10;;;13.10;;
6547;SDS011;3307;52.416;16.862;2023-02-25T01:46:52;13.82;;;12.25;;
6547;SDS011;3307;52.416;16.862;2023-02-25T01:49:34;14.57;;;11.52;;
6547;SDS011;3307;52.416;16.862;2023-02-25T01:54:35;14.13;;;11.52;;
6547;SDS011;3307;52.416;16.862;2023-02-25T01:57:00;13.93;;;11.23;;
6547;SDS011;3307;52.416;16.862;2023-02-25T01:59:29;12.88;;;10.75;;
6547;SDS011;3307;52.416;16.862;2023-02-25T02:01:54;14.23;;;11.43;;
6547;SDS011;3307;52.416;16.862;2023-02-25T02:04:20;16.87;;;12.93;;
6547;SDS011;3307;52.416;16.862;2023-02-25T02:06:47;19.20;;;12.00;;
6547;SDS011;3307;52.416;16.862;2023-02-25T02:09:15;14.25;;;12.63;;
6547;SDS011;3307;52.416;16.862;2023-02-25T02:11:43;17.08;;;12.20;;
6547;SDS011;3307;52.416;16.862;2023-02-25T02:14:09;16.33;;;12.47;;
6547;SDS011;3307;52.416;16.862;2023-02-25T02:19:16;14.15;;;11.93;;
6547;SDS011;3307;52.416;16.862;2023-02-25T02:21:53;13.65;;;12.25;;
6547;SDS011;3307;52.416;16.862;2023-02-25T02:27:38;14.32;;;11.57;;
6547;SDS011;3307;52.416;16.862;2023-02-25T02:38:45;15.45;;;12.38;;
6547;SDS011;3307;52.416;16.862;2023-02-25T02:43:57;14.02;;;12.20;;
6547;SDS011;3307;52.416;16.862;2023-02-25T02:46:33;16.75;;;12.57;;
6547;SDS011;3307;52.416;16.862;2023-02-25T02:49:10;13.98;;;12.25;;
6547;SDS011;3307;52.416;16.862;2023-02-25T02:51:44;18.40;;;13.07;;
6547;SDS011;3307;52.416;16.862;2023-02-25T02:54:12;16.60;;;12.23;;
6547;SDS011;3307;52.416;16.862;2023-02-25T02:56:39;13.50;;;11.43;;
6547;SDS011;3307;52.416;16.862;2023-02-25T02:59:08;14.60;;;12.00;;
6547;SDS011;3307;52.416;16.862;2023-02-25T03:01:38;15.60;;;12.10;;
6547;SDS011;3307;52.416;16.862;2023-02-25T03:04:12;17.10;;;12.50;;
6547;SDS011;3307;52.416;16.862;2023-02-25T03:06:40;19.15;;;13.40;;
6547;SDS011;3307;52.416;16.862;2023-02-25T03:09:15;13.85;;;11.23;;
6547;SDS011;3307;52.416;16.862;2023-02-25T03:11:44;16.98;;;11.90;;
6547;SDS011;3307;52.416;16.862;2023-02-25T03:14:10;13.10;;;10.80;;
6547;SDS011;3307;52.416;16.862;2023-02-25T03:16:41;15.70;;;10.93;;
6547;SDS011;3307;52.416;16.862;2023-02-25T03:19:11;14.85;;;12.18;;
6547;SDS011;3307;52.416;16.862;2023-02-25T03:21:40;13.73;;;10.95;;
6547;SDS011;3307;52.416;16.862;2023-02-25T03:24:12;15.20;;;12.75;;
6547;SDS011;3307;52.416;16.862;2023-02-25T03:26:40;17.38;;;11.75;;
6547;SDS011;3307;52.416;16.862;2023-02-25T03:29:15;15.00;;;12.65;;
6547;SDS011;3307;52.416;16.862;2023-02-25T03:32:15;13.20;;;11.32;;
6547;SDS011;3307;52.416;16.862;2023-02-25T03:34:35;15.80;;;11.95;;
6547;SDS011;3307;52.416;16.862;2023-02-25T03:37:05;13.68;;;11.50;;
6547;SDS011;3307;52.416;16.862;2023-02-25T03:39:35;17.85;;;12.82;;
6547;SDS011;3307;52.416;16.862;2023-02-25T03:42:04;17.23;;;12.90;;
6547;SDS011;3307;52.416;16.862;2023-02-25T03:44:32;16.85;;;12.73;;
6547;SDS011;3307;52.416;16.862;2023-02-25T03:47:00;13.95;;;12.18;;
6547;SDS011;3307;52.416;16.862;2023-02-25T03:49:31;19.67;;;12.75;;
6547;SDS011;3307;52.416;16.862;2023-02-25T03:51:59;16.45;;;12.52;;
6547;SDS011;3307;52.416;16.862;2023-02-25T03:54:26;16.70;;;12.65;;
6547;SDS011;3307;52.416;16.862;2023-02-25T03:56:51;16.83;;;12.70;;
6547;SDS011;3307;52.416;16.862;2023-02-25T03:59:17;14.77;;;12.60;;
6547;SDS011;3307;52.416;16.862;2023-02-25T04:01:43;15.80;;;12.70;;
6547;SDS011;3307;52.416;16.862;2023-02-25T04:04:11;14.95;;;11.50;;
6547;SDS011;3307;52.416;16.862;2023-02-25T04:06:36;16.70;;;12.40;;
6547;SDS011;3307;52.416;16.862;2023-02-25T04:09:02;17.50;;;13.20;;
6547;SDS011;3307;52.416;16.862;2023-02-25T04:11:29;18.02;;;12.25;;
6547;SDS011;3307;52.416;16.862;2023-02-25T04:13:54;15.57;;;11.47;;
6547;SDS011;3307;52.416;16.862;2023-02-25T04:16:19;11.90;;;9.50;;
6547;SDS011;3307;52.416;16.862;2023-02-25T04:18:45;11.93;;;10.23;;
6547;SDS011;3307;52.416;16.862;2023-02-25T04:21:23;14.00;;;10.53;;
6547;SDS011;3307;52.416;16.862;2023-02-25T04:23:50;12.82;;;9.48;;
6547;SDS011;3307;52.416;16.862;2023-02-25T04:26:16;14.67;;;11.00;;
6547;SDS011;3307;52.416;16.862;2023-02-25T04:28:41;13.57;;;10.37;;
6547;SDS011;3307;52.416;16.862;2023-02-25T04:31:06;10.97;;;8.70;;
6547;SDS011;3307;52.416;16.862;2023-02-25T04:33:32;12.43;;;9.80;;
6547;SDS011;3307;52.416;16.862;2023-02-25T04:35:57;11.70;;;9.23;;
6547;SDS011;3307;52.416;16.862;2023-02-25T04:38:23;10.40;;;8.00;;
6547;SDS011;3307;52.416;16.862;2023-02-25T04:40:50;11.47;;;7.90;;
6547;SDS011;3307;52.416;16.862;2023-02-25T04:43:15;13.15;;;8.50;;
6547;SDS011;3307;52.416;16.862;2023-02-25T04:45:41;12.50;;;7.63;;
6547;SDS011;3307;52.416;16.862;2023-02-25T04:48:06;10.43;;;7.00;;
6547;SDS011;3307;52.416;16.862;2023-02-25T04:50:32;8.77;;;7.33;;
6547;SDS011;3307;52.416;16.862;2023-02-25T04:52:58;9.90;;;7.50;;
6547;SDS011;3307;52.416;16.862;2023-02-25T04:55:26;8.43;;;7.53;;
6547;SDS011;3307;52.416;16.862;2023-02-25T04:57:52;8.83;;;6.60;;
6547;SDS011;3307;52.416;16.862;2023-02-25T05:00:18;8.83;;;6.70;;
6547;SDS011;3307;52.416;16.862;2023-02-25T05:02:46;9.43;;;7.05;;
6547;SDS011;3307;52.416;16.862;2023-02-25T05:05:12;7.38;;;6.07;;
6547;SDS011;3307;52.416;16.862;2023-02-25T05:07:37;7.70;;;5.85;;
6547;SDS011;3307;52.416;16.862;2023-02-25T05:10:03;5.03;;;4.43;;
6547;SDS011;3307;52.416;16.862;2023-02-25T05:12:30;7.93;;;5.70;;
6547;SDS011;3307;52.416;16.862;2023-02-25T05:14:56;6.17;;;5.50;;
6547;SDS011;3307;52.416;16.862;2023-02-25T05:17:21;6.80;;;4.90;;
6547;SDS011;3307;52.416;16.862;2023-02-25T05:19:47;5.67;;;5.17;;
6547;SDS011;3307;52.416;16.862;2023-02-25T05:22:12;5.80;;;5.30;;
6547;SDS011;3307;52.416;16.862;2023-02-25T05:24:37;5.10;;;4.57;;
6547;SDS011;3307;52.416;16.862;2023-02-25T05:27:03;6.33;;;4.80;;
6547;SDS011;3307;52.416;16.862;2023-02-25T05:29:29;5.10;;;4.60;;
6547;SDS011;3307;52.416;16.862;2023-02-25T05:31:54;5.90;;;4.90;;
6547;SDS011;3307;52.416;16.862;2023-02-25T05:34:19;5.60;;;4.43;;
6547;SDS011;3307;52.416;16.862;2023-02-25T05:36:46;5.53;;;4.85;;
6547;SDS011;3307;52.416;16.862;2023-02-25T05:39:12;5.50;;;4.80;;
6547;SDS011;3307;52.416;16.862;2023-02-25T05:41:38;5.10;;;4.67;;
6547;SDS011;3307;52.416;16.862;2023-02-25T05:44:04;5.77;;;5.00;;
6547;SDS011;3307;52.416;16.862;2023-02-25T05:46:29;6.50;;;4.10;;
6547;SDS011;3307;52.416;16.862;2023-02-25T05:48:55;5.40;;;4.30;;
6547;SDS011;3307;52.416;16.862;2023-02-25T05:51:20;5.83;;;4.23;;
6547;SDS011;3307;52.416;16.862;2023-02-25T05:53:47;6.35;;;4.53;;
6547;SDS011;3307;52.416;16.862;2023-02-25T05:56:15;4.95;;;4.28;;
6547;SDS011;3307;52.416;16.862;2023-02-25T05:58:42;4.78;;;3.95;;
6547;SDS011;3307;52.416;16.862;2023-02-25T06:01:09;4.03;;;3.63;;
6547;SDS011;3307;52.416;16.862;2023-02-25T06:03:41;6.70;;;3.92;;
6547;SDS011;3307;52.416;16.862;2023-02-25T06:06:08;4.60;;;4.10;;
6547;SDS011;3307;52.416;16.862;2023-02-25T06:08:37;5.78;;;4.30;;
6547;SDS011;3307;52.416;16.862;2023-02-25T06:11:04;4.90;;;4.40;;
6547;SDS011;3307;52.416;16.862;2023-02-25T06:13:30;4.53;;;4.13;;
6547;SDS011;3307;52.416;16.862;2023-02-25T06:15:55;4.20;;;3.50;;
6547;SDS011;3307;52.416;16.862;2023-02-25T06:18:20;4.80;;;3.93;;
6547;SDS011;3307;52.416;16.862;2023-02-25T06:20:46;4.60;;;4.20;;
6547;SDS011;3307;52.416;16.862;2023-02-25T06:23:11;4.33;;;3.87;;
6547;SDS011;3307;52.416;16.862;2023-02-25T06:25:37;5.20;;;3.93;;
6547;SDS011;3307;52.416;16.862;2023-02-25T06:28:02;5.07;;;3.80;;
6547;SDS011;3307;52.416;16.862;2023-02-25T06:30:28;3.47;;;3.17;;
6547;SDS011;3307;52.416;16.862;2023-02-25T06:32:54;4.47;;;3.80;;
6547;SDS011;3307;52.416;16.862;2023-02-25T06:35:20;3.80;;;3.50;;
6547;SDS011;3307;52.416;16.862;2023-02-25T06:37:57;6.07;;;3.78;;
6547;SDS011;3307;52.416;16.862;2023-02-25T06:40:25;4.18;;;3.80;;
6547;SDS011;3307;52.416;16.862;2023-02-25T06:42:51;3.42;;;2.88;;
6547;SDS011;3307;52.416;16.862;2023-02-25T06:45:16;4.93;;;4.50;;
6547;SDS011;3307;52.416;16.862;2023-02-25T06:47:42;7.30;;;4.10;;
6547;SDS011;3307;52.416;16.862;2023-02-25T06:50:08;4.30;;;3.97;;
6547;SDS011;3307;52.416;16.862;2023-02-25T06:52:34;4.78;;;3.80;;
6547;SDS011;3307;52.416;16.862;2023-02-25T06:54:59;3.73;;;3.40;;
6547;SDS011;3307;52.416;16.862;2023-02-25T06:57:25;4.43;;;4.03;;
6547;SDS011;3307;52.416;16.862;2023-02-25T06:59:50;4.23;;;3.53;;
6547;SDS011;3307;52.416;16.862;2023-02-25T07:02:17;4.05;;;3.65;;
6547;SDS011;3307;52.416;16.862;2023-02-25T07:04:43;4.25;;;3.40;;
6547;SDS011;3307;52.416;16.862;2023-02-25T07:07:08;3.50;;;3.20;;
6547;SDS011;3307;52.416;16.862;2023-02-25T07:09:34;4.53;;;3.30;;
6547;SDS011;3307;52.416;16.862;2023-02-25T07:11:59;3.00;;;2.73;;
6547;SDS011;3307;52.416;16.862;2023-02-25T07:14:25;3.40;;;3.10;;
6547;SDS011;3307;52.416;16.862;2023-02-25T07:16:51;2.97;;;2.70;;
6547;SDS011;3307;52.416;16.862;2023-02-25T07:19:16;3.37;;;3.07;;
6547;SDS011;3307;52.416;16.862;2023-02-25T07:21:42;4.50;;;2.90;;
6547;SDS011;3307;52.416;16.862;2023-02-25T07:24:11;2.47;;;2.20;;
6547;SDS011;3307;52.416;16.862;2023-02-25T07:26:37;2.90;;;2.60;;
6547;SDS011;3307;52.416;16.862;2023-02-25T07:29:03;3.83;;;2.92;;
6547;SDS011;3307;52.416;16.862;2023-02-25T07:31:29;2.78;;;2.58;;
6547;SDS011;3307;52.416;16.862;2023-02-25T07:33:55;3.50;;;3.20;;
6547;SDS011;3307;52.416;16.862;2023-02-25T07:36:20;3.20;;;2.90;;
6547;SDS011;3307;52.416;16.862;2023-02-25T07:38:46;5.60;;;4.00;;
6547;SDS011;3307;52.416;16.862;2023-02-25T07:41:15;3.42;;;3.13;;
6547;SDS011;3307;52.416;16.862;2023-02-25T07:43:42;3.78;;;3.42;;
6547;SDS011;3307;52.416;16.862;2023-02-25T07:46:08;3.43;;;3.13;;
6547;SDS011;3307;52.416;16.862;2023-02-25T07:48:34;4.45;;;4.05;;
6547;SDS011;3307;52.416;16.862;2023-02-25T07:51:10;4.90;;;4.00;;
6547;SDS011;3307;52.416;16.862;2023-02-25T07:53:37;5.72;;;5.18;;
6547;SDS011;3307;52.416;16.862;2023-02-25T07:56:04;6.82;;;5.00;;
6547;SDS011;3307;52.416;16.862;2023-02-25T07:58:30;6.47;;;4.85;;
6547;SDS011;3307;52.416;16.862;2023-02-25T08:00:56;6.13;;;4.50;;
6547;SDS011;3307;52.416;16.862;2023-02-25T08:03:22;8.10;;;5.40;;
6547;SDS011;3307;52.416;16.862;2023-02-25T08:05:51;5.67;;;4.77;;
6547;SDS011;3307;52.416;16.862;2023-02-25T08:08:18;5.38;;;4.65;;
6547;SDS011;3307;52.416;16.862;2023-02-25T08:10:44;6.93;;;5.93;;
6547;SDS011;3307;52.416;16.862;2023-02-25T08:13:10;6.80;;;6.10;;
6547;SDS011;3307;52.416;16.862;2023-02-25T08:15:39;6.87;;;5.40;;
6547;SDS011;3307;52.416;16.862;2023-02-25T08:18:05;5.80;;;5.20;;
6547;SDS011;3307;52.416;16.862;2023-02-25T08:20:31;8.17;;;5.80;;
6547;SDS011;3307;52.416;16.862;2023-02-25T08:22:56;5.37;;;4.87;;
6547;SDS011;3307;52.416;16.862;2023-02-25T08:25:23;5.63;;;5.07;;
6547;SDS011;3307;52.416;16.862;2023-02-25T08:27:48;5.00;;;4.50;;
6547;SDS011;3307;52.416;16.862;2023-02-25T08:30:14;5.73;;;4.63;;
6547;SDS011;3307;52.416;16.862;2023-02-25T08:32:40;4.07;;;3.73;;
6547;SDS011;3307;52.416;16.862;2023-02-25T08:35:06;4.33;;;3.83;;
6547;SDS011;3307;52.416;16.862;2023-02-25T08:37:32;4.85;;;4.45;;
6547;SDS011;3307;52.416;16.862;2023-02-25T08:39:57;5.33;;;4.77;;
6547;SDS011;3307;52.416;16.862;2023-02-25T08:42:23;5.80;;;5.10;;
6547;SDS011;3307;52.416;16.862;2023-02-25T08:44:48;6.20;;;5.60;;
6547;SDS011;3307;52.416;16.862;2023-02-25T08:47:14;5.20;;;4.70;;
6547;SDS011;3307;52.416;16.862;2023-02-25T08:49:40;5.68;;;5.18;;
6547;SDS011;3307;52.416;16.862;2023-02-25T08:52:07;6.90;;;6.20;;
6547;SDS011;3307;52.416;16.862;2023-02-25T08:54:36;7.40;;;6.47;;
6547;SDS011;3307;52.416;16.862;2023-02-25T08:57:02;8.43;;;6.68;;
6547;SDS011;3307;52.416;16.862;2023-02-25T08:59:27;8.03;;;6.93;;
6547;SDS011;3307;52.416;16.862;2023-02-25T09:01:53;7.07;;;6.30;;
6547;SDS011;3307;52.416;16.862;2023-02-25T09:04:19;6.87;;;6.17;;
6547;SDS011;3307;52.416;16.862;2023-02-25T09:06:46;8.45;;;7.10;;
6547;SDS011;3307;52.416;16.862;2023-02-25T09:09:16;5.97;;;5.35;;
6547;SDS011;3307;52.416;16.862;2023-02-25T09:11:43;6.65;;;5.72;;
6547;SDS011;3307;52.416;16.862;2023-02-25T09:14:09;5.73;;;5.23;;
6547;SDS011;3307;52.416;16.862;2023-02-25T09:16:35;6.07;;;4.63;;
6547;SDS011;3307;52.416;16.862;2023-02-25T09:19:01;3.30;;;3.10;;
6547;SDS011;3307;52.416;16.862;2023-02-25T09:21:27;4.60;;;4.20;;
6547;SDS011;3307;52.416;16.862;2023-02-25T09:23:52;4.70;;;3.90;;
6547;SDS011;3307;52.416;16.862;2023-02-25T09:26:18;5.07;;;4.57;;
6547;SDS011;3307;52.416;16.862;2023-02-25T09:28:44;4.55;;;4.13;;
6547;SDS011;3307;52.416;16.862;2023-02-25T09:31:11;5.32;;;4.82;;
6547;SDS011;3307;52.416;16.862;2023-02-25T09:33:37;5.20;;;4.70;;
6547;SDS011;3307;52.416;16.862;2023-02-25T09:36:04;4.97;;;4.20;;
6547;SDS011;3307;52.416;16.862;2023-02-25T09:38:37;4.07;;;3.75;;
6547;SDS011;3307;52.416;16.862;2023-02-25T09:41:11;3.70;;;3.40;;
6547;SDS011;3307;52.416;16.862;2023-02-25T09:43:42;4.75;;;3.92;;
6547;SDS011;3307;52.416;16.862;2023-02-25T09:46:09;4.40;;;3.60;;
6547;SDS011;3307;52.416;16.862;2023-02-25T09:48:57;4.00;;;3.60;;
6547;SDS011;3307;52.416;16.862;2023-02-25T09:51:33;3.25;;;2.95;;
6547;SDS011;3307;52.416;16.862;2023-02-25T09:54:12;3.40;;;3.10;;
6547;SDS011;3307;52.416;16.862;2023-02-25T09:56:43;3.30;;;3.00;;
6547;SDS011;3307;52.416;16.862;2023-02-25T09:59:16;3.10;;;2.80;;
6547;SDS011;3307;52.416;16.862;2023-02-25T10:07:47;3.42;;;3.03;;
6547;SDS011;3307;52.416;16.862;2023-02-25T10:10:16;3.80;;;3.50;;
6547;SDS011;3307;52.416;16.862;2023-02-25T10:13:30;3.35;;;3.05;;
6547;SDS011;3307;52.416;16.862;2023-02-25T10:20:55;2.25;;;2.05;;
6547;SDS011;3307;52.416;16.862;2023-02-25T10:23:31;2.55;;;2.35;;
6547;SDS011;3307;52.416;16.862;2023-02-25T10:26:19;3.17;;;2.53;;
6547;SDS011;3307;52.416;16.862;2023-02-25T10:28:49;2.83;;;2.60;;
6547;SDS011;3307;52.416;16.862;2023-02-25T10:31:21;2.50;;;2.30;;
6547;SDS011;3307;52.416;16.862;2023-02-25T10:33:47;5.13;;;4.30;;
6547;SDS011;3307;52.416;16.862;2023-02-25T10:36:15;3.30;;;2.70;;
6547;SDS011;3307;52.416;16.862;2023-02-25T10:38:46;2.97;;;2.55;;
6547;SDS011;3307;52.416;16.862;2023-02-25T10:41:14;2.30;;;2.10;;
6547;SDS011;3307;52.416;16.862;2023-02-25T10:43:40;3.03;;;2.80;;
6547;SDS011;3307;52.416;16.862;2023-02-25T10:46:10;2.70;;;2.50;;
6547;SDS011;3307;52.416;16.862;2023-02-25T10:48:39;2.60;;;2.40;;
6547;SDS011;3307;52.416;16.862;2023-02-25T10:53:36;2.88;;;2.33;;
6547;SDS011;3307;52.416;16.862;2023-02-25T10:56:06;2.60;;;2.40;;
6547;SDS011;3307;52.416;16.862;2023-02-25T10:58:36;2.80;;;2.60;;
6547;SDS011;3307;52.416;16.862;2023-02-25T11:03:32;3.33;;;2.67;;
6547;SDS011;3307;52.416;16.862;2023-02-25T11:06:09;3.05;;;2.85;;
6547;SDS011;3307;52.416;16.862;2023-02-25T11:08:49;3.22;;;2.85;;
6547;SDS011;3307;52.416;16.862;2023-02-25T11:11:23;3.20;;;3.00;;
6547;SDS011;3307;52.416;16.862;2023-02-25T11:16:19;3.28;;;2.80;;
6547;SDS011;3307;52.416;16.862;2023-02-25T11:18:45;3.30;;;2.63;;
6547;SDS011;3307;52.416;16.862;2023-02-25T11:21:16;3.40;;;3.10;;
6547;SDS011;3307;52.416;16.862;2023-02-25T11:23:53;2.88;;;2.58;;
6547;SDS011;3307;52.416;16.862;2023-02-25T11:26:29;7.03;;;6.43;;
6547;SDS011;3307;52.416;16.862;2023-02-25T11:28:58;2.40;;;2.20;;
6547;SDS011;3307;52.416;16.862;2023-02-25T11:31:29;3.30;;;3.00;;
6547;SDS011;3307;52.416;16.862;2023-02-25T11:33:59;2.58;;;2.38;;
6547;SDS011;3307;52.416;16.862;2023-02-25T11:36:34;3.10;;;2.45;;
6547;SDS011;3307;52.416;16.862;2023-02-25T11:39:16;1.65;;;1.55;;
6547;SDS011;3307;52.416;16.862;2023-02-25T11:41:45;1.60;;;1.40;;
6547;SDS011;3307;52.416;16.862;2023-02-25T11:50:05;2.67;;;1.65;;
6547;SDS011;3307;52.416;16.862;2023-02-25T11:59:12;1.75;;;1.60;;
6547;SDS011;3307;52.416;16.862;2023-02-25T12:17:13;1.67;;;1.00;;
6547;SDS011;3307;52.416;16.862;2023-02-25T12:22:25;6.63;;;4.38;;
6547;SDS011;3307;52.416;16.862;2023-02-25T12:55:44;1.05;;;0.77;;
6547;SDS011;3307;52.416;16.862;2023-02-25T13:03:47;1.60;;;1.50;;
6547;SDS011;3307;52.416;16.862;2023-02-25T13:15:17;1.80;;;1.40;;
6547;SDS011;3307;52.416;16.862;2023-02-25T13:26:23;2.30;;;2.10;;
6547;SDS011;3307;52.416;16.862;2023-02-25T13:37:27;1.55;;;1.45;;
6547;SDS011;3307;52.416;16.862;2023-02-25T13:48:25;2.83;;;2.30;;
6547;SDS011;3307;52.416;16.862;2023-02-25T13:53:46;1.63;;;1.50;;
6547;SDS011;3307;52.416;16.862;2023-02-25T14:23:31;2.13;;;1.90;;
6547;SDS011;3307;52.416;16.862;2023-02-25T14:29:10;3.92;;;2.30;;
6547;SDS011;3307;52.416;16.862;2023-02-25T14:44:32;2.20;;;2.00;;
6547;SDS011;3307;52.416;16.862;2023-02-25T14:47:01;3.33;;;2.45;;
6547;SDS011;3307;52.416;16.862;2023-02-25T15:12:31;2.72;;;2.10;;
6547;SDS011;3307;52.416;16.862;2023-02-25T15:18:39;3.17;;;2.40;;
6547;SDS011;3307;52.416;16.862;2023-02-25T15:23:58;2.90;;;2.63;;
6547;SDS011;3307;52.416;16.862;2023-02-25T15:26:24;2.97;;;1.80;;
6547;SDS011;3307;52.416;16.862;2023-02-25T15:28:52;3.90;;;2.03;;
6547;SDS011;3307;52.416;16.862;2023-02-25T15:34:23;3.20;;;2.30;;
6547;SDS011;3307;52.416;16.862;2023-02-25T15:36:45;3.45;;;2.13;;
6547;SDS011;3307;52.416;16.862;2023-02-25T15:40:00;2.33;;;2.00;;
6547;SDS011;3307;52.416;16.862;2023-02-25T15:42:06;2.42;;;2.10;;
6547;SDS011;3307;52.416;16.862;2023-02-25T15:44:33;3.25;;;2.95;;
6547;SDS011;3307;52.416;16.862;2023-02-25T15:47:10;4.22;;;2.63;;
6547;SDS011;3307;52.416;16.862;2023-02-25T15:49:44;2.75;;;2.40;;
6547;SDS011;3307;52.416;16.862;2023-02-25T15:52:10;2.75;;;2.30;;
6547;SDS011;3307;52.416;16.862;2023-02-25T15:59:49;2.50;;;2.22;;
6547;SDS011;3307;52.416;16.862;2023-02-25T16:04:57;3.08;;;2.60;;
6547;SDS011;3307;52.416;16.862;2023-02-25T16:07:28;4.70;;;2.70;;
6547;SDS011;3307;52.416;16.862;2023-02-25T16:09:57;3.65;;;3.10;;
6547;SDS011;3307;52.416;16.862;2023-02-25T16:12:23;4.97;;;3.80;;
6547;SDS011;3307;52.416;16.862;2023-02-25T16:14:50;5.47;;;3.03;;
6547;SDS011;3307;52.416;16.862;2023-02-25T16:17:18;3.33;;;2.97;;
6547;SDS011;3307;52.416;16.862;2023-02-25T16:19:46;4.20;;;2.63;;
6547;SDS011;3307;52.416;16.862;2023-02-25T16:22:16;3.75;;;3.03;;
6547;SDS011;3307;52.416;16.862;2023-02-25T16:24:45;3.10;;;2.78;;
6547;SDS011;3307;52.416;16.862;2023-02-25T16:27:15;4.50;;;3.13;;
6547;SDS011;3307;52.416;16.862;2023-02-25T16:30:09;3.65;;;2.70;;
6547;SDS011;3307;52.416;16.862;2023-02-25T16:40:39;3.92;;;3.30;;
6547;SDS011;3307;52.416;16.862;2023-02-25T16:43:05;5.13;;;3.70;;
6547;SDS011;3307;52.416;16.862;2023-02-25T16:45:41;6.10;;;3.33;;
6547;SDS011;3307;52.416;16.862;2023-02-25T16:48:19;3.47;;;3.05;;
6547;SDS011;3307;52.416;16.862;2023-02-25T16:56:32;5.40;;;3.53;;
6547;SDS011;3307;52.416;16.862;2023-02-25T16:59:00;4.17;;;3.10;;
6547;SDS011;3307;52.416;16.862;2023-02-25T17:01:29;3.58;;;2.88;;
6547;SDS011;3307;52.416;16.862;2023-02-25T17:09:32;5.45;;;3.25;;
6547;SDS011;3307;52.416;16.862;2023-02-25T17:11:58;5.87;;;2.83;;
6547;SDS011;3307;52.416;16.862;2023-02-25T17:14:25;4.65;;;2.58;;
6547;SDS011;3307;52.416;16.862;2023-02-25T17:16:51;4.30;;;3.10;;
6547;SDS011;3307;52.416;16.862;2023-02-25T17:19:17;5.00;;;2.80;;
6547;SDS011;3307;52.416;16.862;2023-02-25T17:21:49;5.72;;;3.20;;
6547;SDS011;3307;52.416;16.862;2023-02-25T17:24:17;4.57;;;2.70;;
6547;SDS011;3307;52.416;16.862;2023-02-25T17:26:45;6.03;;;2.97;;
6547;SDS011;3307;52.416;16.862;2023-02-25T17:29:13;3.45;;;2.53;;
6547;SDS011;3307;52.416;16.862;2023-02-25T17:31:52;3.08;;;2.72;;
6547;SDS011;3307;52.416;16.862;2023-02-25T17:34:21;4.32;;;3.17;;
6547;SDS011;3307;52.416;16.862;2023-02-25T17:36:50;4.55;;;2.40;;
6547;SDS011;3307;52.416;16.862;2023-02-25T17:39:18;6.35;;;2.88;;
6547;SDS011;3307;52.416;16.862;2023-02-25T17:41:44;4.95;;;3.17;;
6547;SDS011;3307;52.416;16.862;2023-02-25T17:44:11;8.45;;;3.83;;
6547;SDS011;3307;52.416;16.862;2023-02-25T17:47:03;4.43;;;2.85;;
6547;SDS011;3307;52.416;16.862;2023-02-25T17:49:30;5.28;;;3.40;;
6547;SDS011;3307;52.416;16.862;2023-02-25T17:51:58;4.50;;;3.28;;
6547;SDS011;3307;52.416;16.862;2023-02-25T17:54:26;4.88;;;3.33;;
6547;SDS011;3307;52.416;16.862;2023-02-25T17:56:57;6.05;;;3.40;;
6547;SDS011;3307;52.416;16.862;2023-02-25T17:59:35;3.45;;;2.85;;
6547;SDS011;3307;52.416;16.862;2023-02-25T18:04:47;4.72;;;3.97;;
6547;SDS011;3307;52.416;16.862;2023-02-25T18:07:19;6.50;;;3.83;;
6547;SDS011;3307;52.416;16.862;2023-02-25T18:09:45;5.55;;;3.35;;
6547;SDS011;3307;52.416;16.862;2023-02-25T18:12:27;4.33;;;2.90;;
6547;SDS011;3307;52.416;16.862;2023-02-25T18:14:57;5.20;;;3.50;;
6547;SDS011;3307;52.416;16.862;2023-02-25T18:17:28;5.60;;;3.13;;
6547;SDS011;3307;52.416;16.862;2023-02-25T18:19:57;3.35;;;3.05;;
6547;SDS011;3307;52.416;16.862;2023-02-25T18:22:26;2.60;;;1.85;;
6547;SDS011;3307;52.416;16.862;2023-02-25T18:24:56;2.38;;;2.00;;
6547;SDS011;3307;52.416;16.862;2023-02-25T18:27:25;2.75;;;2.55;;
6547;SDS011;3307;52.416;16.862;2023-02-25T18:30:15;3.40;;;2.25;;
6547;SDS011;3307;52.416;16.862;2023-02-25T18:32:43;4.00;;;2.50;;
6547;SDS011;3307;52.416;16.862;2023-02-25T18:35:09;3.65;;;3.03;;
6547;SDS011;3307;52.416;16.862;2023-02-25T18:37:35;3.57;;;2.93;;
6547;SDS011;3307;52.416;16.862;2023-02-25T18:40:01;3.95;;;2.70;;
6547;SDS011;3307;52.416;16.862;2023-02-25T18:42:27;4.50;;;2.40;;
6547;SDS011;3307;52.416;16.862;2023-02-25T18:44:52;3.40;;;2.50;;
6547;SDS011;3307;52.416;16.862;2023-02-25T18:47:17;5.00;;;2.33;;
6547;SDS011;3307;52.416;16.862;2023-02-25T18:49:43;3.20;;;2.20;;
6547;SDS011;3307;52.416;16.862;2023-02-25T18:52:22;4.57;;;2.60;;
6547;SDS011;3307;52.416;16.862;2023-02-25T18:54:49;3.53;;;1.95;;
6547;SDS011;3307;52.416;16.862;2023-02-25T18:57:17;3.25;;;2.65;;
6547;SDS011;3307;52.416;16.862;2023-02-25T18:59:44;4.55;;;2.58;;
6547;SDS011;3307;52.416;16.862;2023-02-25T19:02:20;4.37;;;2.90;;
6547;SDS011;3307;52.416;16.862;2023-02-25T19:04:47;4.38;;;3.38;;
6547;SDS011;3307;52.416;16.862;2023-02-25T19:07:12;5.03;;;3.40;;
6547;SDS011;3307;52.416;16.862;2023-02-25T19:09:37;7.23;;;3.77;;
6547;SDS011;3307;52.416;16.862;2023-02-25T19:12:03;8.57;;;4.25;;